Terminal Aerodrome Forecast
Issued by NWS

Home | Current Version | Previous Version | Text Only | Print | Product List | Glossary On
Versions: 1 2 3 4 5 6 7 8 9 10 11 12 13 14 15 16
000
FTUS43 KGRR 291731
TAFBTL
TAF
KBTL 291731Z 2918/3018 06010KT P6SM -SHRA OVC045
     FM292000 06012G17KT 5SM -SHRA BR OVC020
     FM292300 07016G24KT 4SM -SHRA BR OVC009
     FM300300 08016G25KT 5SM -SHRA BR OVC011
     FM300800 08016G23KT 3SM -SHRA BR OVC005
     FM301100 10012G19KT 2SM -RA BR VCTS OVC005CB
     FM301400 11008KT 3SM -SHRA BR OVC005=

USA.gov is the U.S. government's official web portal to all federal, state and local government web resources and services.